Time;durP1;ratioP1;P1;durP2;ratioP2;P2;SDS_P1;SDS_P2;PMS_P1;PMS_P2;Temp;Humidity;BMP_temperature;BMP_pressure;BME280_temperature;BME280_humidity;BME280_pressure;Samples;Min_cycle;Max_cycle;Signal;HPM_P1;HPM_P2
2023/11/22 00:00:10;;;;;;;3.38;1.48;;;8.90;97.50;;;;;;4923497;29;20453;-93
2023/11/22 00:02:37;;;;;;;1.67;1.27;;;;;;;;;;4920971;29;20437;-92
2023/11/22 00:05:05;;;;;;;1.52;1.05;;;;;;;;;;4922972;29;20016;-92
2023/11/22 00:07:30;;;;;;;3.80;1.20;;;;;;;;;;4922931;29;20038;-92
2023/11/22 00:09:56;;;;;;;1.58;1.10;;;;;;;;;;4921862;29;20031;-91
2023/11/22 00:12:24;;;;;;;1.02;0.93;;;;;;;;;;4907621;29;20448;-92
2023/11/22 00:14:50;;;;;;;1.10;1.02;;;;;;;;;;4923125;29;20024;-92
2023/11/22 00:17:17;;;;;;;1.52;1.15;;;;;;;;;;4922302;29;20690;-91
2023/11/22 00:19:45;;;;;;;1.42;0.95;;;9.00;93.00;;;;;;4919237;29;20046;-92
2023/11/22 00:22:13;;;;;;;1.73;1.13;;;;;;;;;;4923040;29;20028;-91
2023/11/22 00:24:40;;;;;;;2.03;1.05;;;8.90;93.10;;;;;;4922600;29;20506;-92
2023/11/22 00:27:06;;;;;;;1.48;0.90;;;;;;;;;;4925474;29;20687;-92
2023/11/22 00:29:32;;;;;;;1.05;0.90;;;;;;;;;;4911671;29;20036;-92
2023/11/22 00:31:58;;;;;;;1.95;1.45;;;;;;;;;;4912673;29;20038;-92
2023/11/22 00:34:24;;;;;;;4.13;1.92;;;;;;;;;;4925280;29;20028;-92
2023/11/22 00:36:51;;;;;;;2.80;1.55;;;;;;;;;;4910547;29;20302;-92
2023/11/22 00:39:17;;;;;;;1.83;1.00;;;;;;;;;;4926837;29;20153;-92
2023/11/22 00:41:46;;;;;;;1.25;1.08;;;9.00;93.20;;;;;;4926613;29;20034;-92
2023/11/22 00:44:12;;;;;;;2.20;1.08;;;;;;;;;;4926746;29;20083;-92
2023/11/22 00:46:38;;;;;;;1.67;1.17;;;;;;;;;;4925975;29;20052;-93
2023/11/22 00:49:05;;;;;;;1.65;1.30;;;;;;;;;;4925221;29;20034;-92
2023/11/22 00:51:31;;;;;;;4.20;1.02;;;8.90;93.10;;;;;;4924627;29;20529;-93
2023/11/22 00:54:00;;;;;;;1.00;0.90;;;9.00;93.10;;;;;;4924985;29;20784;-92
2023/11/22 00:56:26;;;;;;;1.80;0.98;;;;;;;;;;4924489;29;20090;-93
2023/11/22 00:58:53;;;;;;;2.35;1.33;;;;;;;;;;4926388;29;20048;-92
2023/11/22 01:01:22;;;;;;;1.98;1.30;;;9.00;93.30;;;;;;4923563;29;20510;-93
2023/11/22 01:03:48;;;;;;;1.20;0.93;;;;;;;;;;4924704;29;20500;-93
2023/11/22 01:06:14;;;;;;;2.15;1.17;;;9.40;96.10;;;;;;4922902;29;20027;-92
2023/11/22 01:08:40;;;;;;;7.32;1.25;;;;;;;;;;4925982;29;20042;-92
2023/11/22 01:11:07;;;;;;;1.63;0.85;;;;;;;;;;4924773;29;20856;-92
2023/11/22 01:13:39;;;;;;;2.50;1.15;;;8.90;98.90;;;;;;4924675;29;20034;-93
2023/11/22 01:16:14;;;;;;;4.35;1.23;;;8.80;99.90;;;;;;4924525;29;20051;-92
2023/11/22 01:18:40;;;;;;;2.05;0.95;;;;;;;;;;4926157;29;20024;-92
2023/11/22 01:21:06;;;;;;;1.80;0.98;;;;;;;;;;4923768;29;20051;-93
2023/11/22 01:23:32;;;;;;;0.65;0.60;;;;;;;;;;4923957;29;20028;-93
2023/11/22 01:25:59;;;;;;;6.05;1.30;;;8.80;99.90;;;;;;4925425;29;20543;-92
2023/11/22 01:28:27;;;;;;;2.75;1.80;;;;;;;;;;4924325;29;20107;-92
2023/11/22 01:30:53;;;;;;;1.55;1.40;;;;;;;;;;4908122;29;20596;-92
2023/11/22 01:33:19;;;;;;;1.58;1.02;;;;;;;;;;4925644;29;20043;-92
2023/11/22 01:35:45;;;;;;;1.10;0.98;;;;;;;;;;4923365;29;20016;-93
2023/11/22 01:38:10;;;;;;;3.47;1.42;;;;;;;;;;4924987;29;20099;-92
2023/11/22 01:40:44;;;;;;;2.22;1.77;;;8.70;93.80;;;;;;4909247;29;20901;-92
2023/11/22 01:43:20;;;;;;;2.22;1.23;;;8.90;93.80;;;;;;4922437;29;20028;-92
2023/11/22 01:45:47;;;;;;;1.45;1.13;;;;;;;;;;4922784;29;20399;-91
2023/11/22 01:48:13;;;;;;;1.50;1.25;;;;;;;;;;4923587;29;20024;-92
2023/11/22 01:50:43;;;;;;;2.60;1.67;;;8.80;93.90;;;;;;4924730;29;20028;-91
2023/11/22 01:53:12;;;;;;;5.55;1.50;;;8.80;94.10;;;;;;4923654;29;20051;-91
2023/11/22 01:55:38;;;;;;;1.42;1.17;;;;;;;;;;4924390;29;20031;-92
2023/11/22 01:58:04;;;;;;;4.60;1.17;;;;;;;;;;4924631;29;20103;-94
2023/11/22 02:00:45;;;;;;;2.78;1.33;;;8.90;99.90;;;;;;4923145;29;20071;-93
2023/11/22 02:03:11;;;;;;;3.63;1.77;;;;;;;;;;4922925;29;20423;-92
2023/11/22 02:05:41;;;;;;;1.20;0.90;;;8.90;93.50;;;;;;4923053;29;20024;-93
2023/11/22 02:08:08;;;;;;;7.65;1.23;;;;;;;;;;4924008;29;20495;-93
2023/11/22 02:10:36;;;;;;;1.95;1.40;;;;;;;;;;4924257;29;20016;-91
2023/11/22 02:13:04;;;;;;;1.27;1.00;;;;;;;;;;4924463;29;20481;-92
2023/11/22 02:15:30;;;;;;;1.95;1.13;;;;;;;;;;4907107;29;20016;-92
2023/11/22 02:17:57;;;;;;;2.03;1.05;;;;;;;;;;4923622;29;20036;-92
2023/11/22 02:20:23;;;;;;;3.83;1.30;;;;;;;;;;4923071;29;20394;-92
2023/11/22 02:22:50;;;;;;;2.83;1.17;;;;;;;;;;4925459;29;20030;-92
2023/11/22 02:25:16;;;;;;;4.47;1.15;;;8.80;99.90;;;;;;4921944;29;20032;-92
2023/11/22 02:27:42;;;;;;;1.80;1.45;;;;;;;;;;4924414;29;20098;-92
2023/11/22 02:30:08;;;;;;;3.28;1.42;;;8.80;94.90;;;;;;4923461;29;20270;-91
2023/11/22 02:32:34;;;;;;;2.63;1.20;;;;;;;;;;4908966;29;20509;-92
2023/11/22 02:35:00;;;;;;;0.88;0.88;;;;;;;;;;4923281;29;20024;-92
2023/11/22 02:37:27;;;;;;;2.72;1.45;;;;;;;;;;4923657;29;20034;-92
2023/11/22 02:40:21;;;;;;;1.85;1.30;;;8.90;94.00;;;;;;4922609;29;20091;-92
2023/11/22 02:42:52;;;;;;;2.40;1.33;;;8.80;96.60;;;;;;4922270;29;20051;-93
2023/11/22 02:45:19;;;;;;;5.40;1.23;;;9.00;98.70;;;;;;4925967;29;20032;-91
2023/11/22 02:47:46;;;;;;;3.83;1.40;;;8.90;94.00;;;;;;4921696;29;20509;-91
2023/11/22 02:50:12;;;;;;;1.73;1.23;;;8.80;93.90;;;;;;4924016;29;20035;-92
2023/11/22 02:52:38;;;;;;;9.80;1.60;;;;;;;;;;4923431;29;20082;-92
2023/11/22 02:55:05;;;;;;;5.50;1.30;;;8.90;99.90;;;;;;4922337;29;20020;-91
2023/11/22 02:57:31;;;;;;;3.30;1.85;;;;;;;;;;4920259;29;20024;-91
2023/11/22 02:59:57;;;;;;;2.20;1.52;;;;;;;;;;4923653;29;20071;-92
2023/11/22 03:02:23;;;;;;;2.05;1.08;;;;;;;;;;4923028;29;20024;-93
2023/11/22 03:04:50;;;;;;;7.80;2.10;;;8.80;93.40;;;;;;4922116;29;20091;-92
2023/11/22 03:07:17;;;;;;;4.57;1.35;;;8.70;96.80;;;;;;4923703;29;20042;-91
2023/11/22 03:09:45;;;;;;;1.23;1.00;;;;;;;;;;4921383;29;20032;-93
2023/11/22 03:12:12;;;;;;;6.05;1.80;;;;;;;;;;4907378;29;20091;-92
2023/11/22 03:14:38;;;;;;;3.35;1.30;;;;;;;;;;4922385;29;20032;-93
2023/11/22 03:17:05;;;;;;;2.40;1.30;;;;;;;;;;4922314;29;20273;-92
2023/11/22 03:19:33;;;;;;;4.00;1.38;;;;;;;;;;4923058;29;20024;-93
2023/11/22 03:21:59;;;;;;;1.70;1.60;;;;;;;;;;4922598;29;20031;-92
2023/11/22 03:24:25;;;;;;;2.65;1.58;;;;;;;;;;4922438;29;20027;-92
2023/11/22 03:26:52;;;;;;;4.68;1.45;;;;;;;;;;4923859;29;20039;-92
2023/11/22 03:29:18;;;;;;;1.13;1.02;;;;;;;;;;4907288;29;20111;-90
2023/11/22 03:31:46;;;;;;;1.38;1.08;;;8.60;94.10;;;;;;4922084;29;20074;-92
2023/11/22 03:34:13;;;;;;;1.73;1.17;;;8.70;99.90;;;;;;4924674;29;20031;-91
2023/11/22 03:36:40;;;;;;;2.20;1.13;;;8.60;94.30;;;;;;4921371;29;20111;-91
2023/11/22 03:39:06;;;;;;;1.42;0.95;;;;;;;;;;4923610;29;20047;-93
2023/11/22 03:41:32;;;;;;;2.55;1.35;;;;;;;;;;4923514;29;20027;-92
2023/11/22 03:43:58;;;;;;;3.00;1.30;;;;;;;;;;4924442;29;20020;-92
2023/11/22 03:46:24;;;;;;;1.45;1.35;;;;;;;;;;4921835;29;20044;-92
2023/11/22 03:48:50;;;;;;;3.05;1.40;;;;;;;;;;4923525;29;20047;-92
2023/11/22 03:51:16;;;;;;;4.00;1.35;;;;;;;;;;4922025;29;20028;-92
2023/11/22 03:53:42;;;;;;;1.35;1.05;;;;;;;;;;4920840;29;20110;-92
2023/11/22 03:56:08;;;;;;;1.23;0.90;;;;;;;;;;4922146;29;20083;-92
2023/11/22 03:58:34;;;;;;;3.72;1.23;;;;;;;;;;4923811;29;20032;-92
2023/11/22 04:01:02;;;;;;;0.80;0.80;;;;;;;;;;4924592;29;20087;-92
2023/11/22 04:03:28;;;;;;;2.22;1.08;;;;;;;;;;4924884;29;20445;-92
2023/11/22 04:05:54;;;;;;;1.45;1.10;;;;;;;;;;4927602;29;20052;-92
2023/11/22 04:08:20;;;;;;;1.35;1.20;;;;;;;;;;4925505;29;20020;-92
2023/11/22 04:10:47;;;;;;;2.83;1.02;;;;;;;;;;4927387;29;20516;-92
2023/11/22 04:13:13;;;;;;;2.97;1.20;;;;;;;;;;4925095;29;20520;-92
2023/11/22 04:15:39;;;;;;;7.50;1.98;;;;;;;;;;4927129;29;20071;-92
2023/11/22 04:18:05;;;;;;;2.28;1.17;;;;;;;;;;4925474;29;20404;-92
2023/11/22 04:20:31;;;;;;;2.88;1.50;;;;;;;;;;4925769;29;20040;-92
2023/11/22 04:22:57;;;;;;;2.75;1.10;;;;;;;;;;4924697;29;20115;-92
2023/11/22 04:25:23;;;;;;;2.10;1.20;;;;;;;;;;4927392;29;20481;-92
2023/11/22 04:27:49;;;;;;;2.35;1.50;;;;;;;;;;4924860;29;20040;-91
2023/11/22 04:30:46;;;;;;;3.90;1.70;;;8.70;92.50;;;;;;4923851;29;20260;-92
2023/11/22 04:33:12;;;;;;;2.38;1.50;;;;;;;;;;4927768;29;20118;-93
2023/11/22 04:35:39;;;;;;;3.88;1.95;;;;;;;;;;4926421;29;20122;-92
2023/11/22 04:38:05;;;;;;;3.58;1.80;;;8.30;95.70;;;;;;4926193;29;20031;-92
2023/11/22 04:40:31;;;;;;;3.20;1.75;;;;;;;;;;4924606;29;20046;-92
2023/11/22 04:42:57;;;;;;;7.07;1.60;;;;;;;;;;4926835;29;20031;-92
2023/11/22 04:45:23;;;;;;;5.80;1.95;;;;;;;;;;4925675;29;20527;-92
2023/11/22 04:47:49;;;;;;;3.28;1.23;;;;;;;;;;4928049;29;20024;-93
2023/11/22 04:50:15;;;;;;;2.70;1.80;;;;;;;;;;4925944;29;20035;-91
2023/11/22 04:52:41;;;;;;;2.72;1.50;;;;;;;;;;4925535;29;20036;-92
2023/11/22 04:55:07;;;;;;;2.53;1.50;;;;;;;;;;4923874;29;20110;-93
2023/11/22 04:57:33;;;;;;;3.95;1.75;;;8.60;92.40;;;;;;4926615;29;20020;-92
2023/11/22 05:00:00;;;;;;;4.45;1.42;;;;;;;;;;4922901;29;20098;-92
2023/11/22 05:02:26;;;;;;;3.50;2.17;;;;;;;;;;4926025;29;20082;-92
2023/11/22 05:04:53;;;;;;;2.88;1.52;;;;;;;;;;4924438;29;20032;-92
2023/11/22 05:07:19;;;;;;;2.55;1.80;;;;;;;;;;4923625;29;20031;-91
2023/11/22 05:09:45;;;;;;;7.97;2.85;;;;;;;;;;4926682;29;20015;-92
2023/11/22 05:12:11;;;;;;;8.82;3.05;;;;;;;;;;4925678;29;20027;-91
2023/11/22 05:14:37;;;;;;;6.80;2.50;;;;;;;;;;4925936;29;20032;-92
2023/11/22 05:17:04;;;;;;;7.95;3.08;;;8.60;92.50;;;;;;4926372;29;20039;-93
2023/11/22 05:19:31;;;;;;;2.67;1.80;;;8.60;99.90;;;;;;4926381;29;20040;-92
2023/11/22 05:21:57;;;;;;;4.63;3.50;;;;;;;;;;4925894;29;20028;-94
2023/11/22 05:24:23;;;;;;;5.72;2.40;;;;;;;;;;4923257;29;20031;-92
2023/11/22 05:26:49;;;;;;;3.67;1.73;;;;;;;;;;4925133;29;20489;-93
2023/11/22 05:29:15;;;;;;;4.38;1.67;;;;;;;;;;4923105;29;20110;-92
2023/11/22 05:31:41;;;;;;;4.30;2.35;;;;;;;;;;4910918;29;20503;-93
2023/11/22 05:34:07;;;;;;;3.55;1.85;;;;;;;;;;4924645;29;20042;-92
2023/11/22 05:36:33;;;;;;;2.45;2.03;;;8.40;99.90;;;;;;4925080;29;20036;-91
2023/11/22 05:39:00;;;;;;;3.65;1.75;;;;;;;;;;4923919;29;20031;-92
2023/11/22 05:41:26;;;;;;;3.50;1.30;;;;;;;;;;4924405;29;20043;-91
2023/11/22 05:43:54;;;;;;;2.85;1.75;;;8.50;93.10;;;;;;4922958;29;20030;-91
2023/11/22 05:46:24;;;;;;;3.13;2.03;;;;;;;;;;4924625;29;20152;-92
2023/11/22 05:48:53;;;;;;;3.28;1.83;;;8.60;93.10;;;;;;4924316;29;20031;-91
2023/11/22 05:51:19;;;;;;;2.67;1.67;;;;;;;;;;4924643;29;20080;-92
2023/11/22 05:53:46;;;;;;;3.60;1.88;;;;;;;;;;4924347;29;20106;-93
2023/11/22 05:56:12;;;;;;;2.97;1.60;;;;;;;;;;4925044;29;20032;-92
2023/11/22 05:58:38;;;;;;;2.35;1.60;;;;;;;;;;4924024;29;20115;-91
2023/11/22 06:01:05;;;;;;;4.13;1.83;;;;;;;;;;4923398;29;20039;-92
2023/11/22 06:03:31;;;;;;;1.27;1.10;;;;;;;;;;4924836;29;20071;-91
2023/11/22 06:05:57;;;;;;;3.85;1.40;;;;;;;;;;4925016;29;20036;-93
2023/11/22 06:08:23;;;;;;;4.57;1.60;;;;;;;;;;4927594;29;20086;-93
2023/11/22 06:10:50;;;;;;;3.38;1.58;;;;;;;;;;4926098;29;20020;-91
2023/11/22 06:13:15;;;;;;;3.38;1.83;;;;;;;;;;4924008;29;20034;-92
2023/11/22 06:15:42;;;;;;;30.10;1.65;;;;;;;;;;4922487;29;20019;-91
2023/11/22 06:18:07;;;;;;;2.95;1.27;;;8.80;99.90;;;;;;4925007;29;20032;-92
2023/11/22 06:20:33;;;;;;;2.15;1.35;;;;;;;;;;4923465;29;20036;-93
2023/11/22 06:22:59;;;;;;;2.45;1.17;;;;;;;;;;4923910;29;20067;-91
2023/11/22 06:25:26;;;;;;;2.33;1.35;;;;;;;;;;4923989;29;20506;-93
2023/11/22 06:27:52;;;;;;;4.45;1.77;;;;;;;;;;4924098;29;20128;-86
2023/11/22 06:30:19;;;;;;;2.25;1.67;;;;;;;;;;4916029;29;20045;-87
2023/11/22 06:32:45;;;;;;;2.25;1.60;;;;;;;;;;4920091;29;20513;-88
2023/11/22 06:35:14;;;;;;;3.75;1.63;;;;;;;;;;4917658;29;20529;-86
2023/11/22 06:37:41;;;;;;;3.42;2.10;;;;;;;;;;4920215;29;20055;-86
2023/11/22 06:40:12;;;;;;;3.58;1.58;;;8.80;92.60;;;;;;4920376;29;20521;-87
2023/11/22 06:42:38;;;;;;;2.00;1.80;;;;;;;;;;4918512;29;20023;-88
2023/11/22 06:45:12;;;;;;;1.80;1.33;;;8.90;92.60;;;;;;5087328;27;20426;-87
2023/11/22 06:47:42;;;;;;;1.60;1.40;;;8.80;92.70;;;;;;5088243;28;20036;-86
2023/11/22 06:50:12;;;;;;;4.10;2.00;;;8.80;99.20;;;;;;5089024;28;20066;-87
2023/11/22 06:52:41;;;;;;;3.33;1.67;;;8.90;92.90;;;;;;5086540;28;20565;-80
2023/11/22 06:55:10;;;;;;;3.95;1.77;;;;;;;;;;5087246;28;20633;-81
2023/11/22 06:57:37;;;;;;;9.93;4.70;;;8.90;92.90;;;;;;5087468;28;20032;-80
2023/11/22 07:00:09;;;;;;;2.22;1.48;;;8.90;92.90;;;;;;5084736;28;20024;-81
2023/11/22 07:02:35;;;;;;;2.78;1.40;;;;;;;;;;5090087;28;20021;-81
2023/11/22 07:05:02;;;;;;;7.45;1.85;;;;;;;;;;5087896;28;20044;-81
2023/11/22 07:07:29;;;;;;;2.33;1.83;;;;;;;;;;5090079;28;20048;-80
2023/11/22 07:09:57;;;;;;;5.78;1.88;;;;;;;;;;5087283;28;20035;-80
2023/11/22 07:12:23;;;;;;;2.67;1.35;;;9.00;99.40;;;;;;5088507;28;20043;-80
2023/11/22 07:14:49;;;;;;;3.05;1.92;;;9.00;99.20;;;;;;5086215;28;20021;-80
2023/11/22 07:17:17;;;;;;;5.22;2.30;;;;;;;;;;5078245;28;20904;-83
2023/11/22 07:19:46;;;;;;;4.25;2.35;;;;;;;;;;5080851;28;20032;-83
2023/11/22 07:22:16;;;;;;;2.65;1.70;;;9.00;93.90;;;;;;5066032;28;20028;-82
2023/11/22 07:24:45;;;;;;;2.67;1.42;;;9.00;93.90;;;;;;5085627;28;20028;-83
2023/11/22 07:27:14;;;;;;;2.40;1.58;;;9.00;96.00;;;;;;5081038;28;20023;-85
2023/11/22 07:29:41;;;;;;;7.55;2.38;;;9.00;94.20;;;;;;5085295;28;20035;-84
2023/11/22 07:32:08;;;;;;;1.92;1.67;;;9.00;94.20;;;;;;5079438;28;20644;-84
2023/11/22 07:34:35;;;;;;;3.92;2.10;;;9.00;94.70;;;;;;5081361;28;20034;-88
2023/11/22 07:37:01;;;;;;;5.15;1.92;;;;;;;;;;5080953;28;20032;-86
2023/11/22 07:39:28;;;;;;;5.20;2.40;;;9.00;94.70;;;;;;5089197;28;20102;-84
2023/11/22 07:41:56;;;;;;;3.78;1.85;;;12.60;95.90;;;;;;5088578;28;20055;-83
2023/11/22 07:44:24;;;;;;;3.13;2.13;;;;;;;;;;5082081;28;20086;-84
2023/11/22 07:46:51;;;;;;;3.38;2.17;;;;;;;;;;5086918;28;20634;-82
2023/11/22 07:49:16;;;;;;;3.88;2.28;;;8.80;99.90;;;;;;5090485;28;20025;-82
2023/11/22 07:51:45;;;;;;;6.40;1.95;;;8.80;96.10;;;;;;5086442;28;20089;-82
2023/11/22 07:54:13;;;;;;;3.67;2.40;;;8.80;99.90;;;;;;5080528;28;20032;-81
2023/11/22 07:56:43;;;;;;;6.03;2.00;;;;;;;;;;5070570;28;20077;-82
2023/11/22 07:59:10;;;;;;;3.78;2.65;;;;;;;;;;5075141;28;20020;-82
2023/11/22 08:01:40;;;;;;;3.40;2.08;;;;;;;;;;5074247;28;20133;-82
2023/11/22 08:04:06;;;;;;;5.25;2.08;;;;;;;;;;5033365;28;20044;-80
2023/11/22 08:06:32;;;;;;;2.25;1.60;;;;;;;;;;5009351;28;20041;-81
2023/11/22 08:09:01;;;;;;;2.45;1.58;;;8.90;97.20;;;;;;5014698;28;20026;-82
2023/11/22 08:11:27;;;;;;;4.10;1.77;;;;;;;;;;5013500;28;20197;-83
2023/11/22 08:13:55;;;;;;;3.03;2.08;;;;;;;;;;5004421;28;20029;-83
2023/11/22 08:16:21;;;;;;;5.57;2.47;;;;;;;;;;5014001;28;20040;-83
2023/11/22 08:18:47;;;;;;;5.35;2.33;;;;;;;;;;5014610;28;20518;-83
2023/11/22 08:21:14;;;;;;;5.13;2.33;;;;;;;;;;5013918;28;20452;-82
2023/11/22 08:23:40;;;;;;;3.88;3.00;;;;;;;;;;5004594;28;20123;-83
2023/11/22 08:26:06;;;;;;;4.97;1.95;;;9.10;99.90;;;;;;5012747;28;20109;-91
2023/11/22 08:28:34;;;;;;;8.95;2.75;;;;;;;;;;5012650;28;20455;-83
2023/11/22 08:31:00;;;;;;;3.22;2.03;;;;;;;;;;5014357;28;20542;-84
2023/11/22 08:33:26;;;;;;;3.28;1.67;;;;;;;;;;5006640;28;20041;-82
2023/11/22 08:35:58;;;;;;;3.80;2.25;;;;;;;;;;5014817;28;20221;-83
2023/11/22 08:38:24;;;;;;;6.53;2.67;;;9.30;99.90;;;;;;5012593;28;20100;-84
2023/11/22 08:40:50;;;;;;;5.20;1.98;;;;;;;;;;5013438;28;20014;-82
2023/11/22 08:43:16;;;;;;;11.30;4.25;;;;;;;;;;5003518;28;20192;-81
2023/11/22 08:45:43;;;;;;;3.50;1.95;;;;;;;;;;5015258;28;20592;-83
2023/11/22 08:48:09;;;;;;;5.35;2.45;;;9.00;99.90;;;;;;5013086;28;20026;-83
2023/11/22 08:50:35;;;;;;;6.00;2.25;;;;;;;;;;5013883;28;20109;-83
2023/11/22 08:53:01;;;;;;;7.32;2.42;;;;;;;;;;5005642;28;20496;-83
2023/11/22 08:55:27;;;;;;;2.90;1.58;;;;;;;;;;5011409;28;20031;-84
2023/11/22 08:57:53;;;;;;;3.53;2.08;;;;;;;;;;5011951;28;20655;-83
2023/11/22 09:00:22;;;;;;;4.13;1.92;;;;;;;;;;5015214;28;20038;-82
2023/11/22 09:02:51;;;;;;;4.18;2.65;;;10.40;97.60;;;;;;5007129;28;20328;-84
2023/11/22 09:05:19;;;;;;;3.25;1.80;;;;;;;;;;5007437;28;20034;-83
2023/11/22 09:07:45;;;;;;;2.35;2.13;;;;;;;;;;5010995;28;20025;-82
2023/11/22 09:10:12;;;;;;;3.58;1.23;;;;;;;;;;5014340;28;20036;-82
2023/11/22 09:12:42;;;;;;;2.78;1.70;;;12.40;98.60;;;;;;5009772;28;20049;-82
2023/11/22 09:15:09;;;;;;;3.35;1.80;;;;;;;;;;5007211;28;20037;-83
2023/11/22 09:17:38;;;;;;;4.82;2.25;;;9.00;97.00;;;;;;5012684;28;20032;-82
2023/11/22 09:20:06;;;;;;;7.43;1.98;;;9.20;99.90;;;;;;5014020;28;20506;-83
2023/11/22 09:22:32;;;;;;;2.05;1.63;;;;;;;;;;5011046;28;20188;-83
2023/11/22 09:24:58;;;;;;;3.75;2.45;;;;;;;;;;5003303;28;20511;-83
2023/11/22 09:27:25;;;;;;;1.98;1.60;;;;;;;;;;5011693;28;20022;-83
2023/11/22 09:29:51;;;;;;;3.53;2.80;;;;;;;;;;5013632;28;20159;-83
2023/11/22 09:32:17;;;;;;;3.97;1.70;;;;;;;;;;5012825;28;20356;-83
2023/11/22 09:34:44;;;;;;;3.10;1.83;;;;;;;;;;5003838;28;20022;-83
2023/11/22 09:37:09;;;;;;;4.95;2.20;;;9.30;99.90;;;;;;5013111;28;20398;-82
2023/11/22 09:39:36;;;;;;;2.33;1.50;;;;;;;;;;5014027;28;20028;-85
2023/11/22 09:42:02;;;;;;;1.58;1.20;;;9.60;99.90;;;;;;5011684;28;20049;-84
2023/11/22 09:44:28;;;;;;;2.47;1.60;;;9.60;99.90;;;;;;5003149;28;20049;-84
2023/11/22 09:46:56;;;;;;;2.65;1.52;;;9.60;94.70;;;;;;5013537;28;20033;-85
2023/11/22 09:49:29;;;;;;;5.55;1.92;;;9.60;94.50;;;;;;5010608;28;20022;-83
2023/11/22 09:51:59;;;;;;;4.55;2.10;;;9.60;94.70;;;;;;5013123;28;20021;-81
2023/11/22 09:54:29;;;;;;;3.10;2.08;;;9.90;94.20;;;;;;5002296;28;20040;-81
2023/11/22 09:56:56;;;;;;;2.55;1.90;;;10.20;93.10;;;;;;5011002;28;20018;-80
2023/11/22 09:59:23;;;;;;;1.80;1.23;;;9.80;92.80;;;;;;5027472;28;20059;-81
2023/11/22 10:01:49;;;;;;;2.37;1.53;;;;;;;;;;5012417;28;20018;-81
2023/11/22 10:04:15;;;;;;;2.00;1.30;;;;;;;;;;5003195;28;20387;-82
2023/11/22 10:06:46;;;;;;;3.05;2.03;;;;;;;;;;5013540;28;20028;-82
2023/11/22 10:09:13;;;;;;;6.45;1.92;;;;;;;;;;5010598;28;20836;-81
2023/11/22 10:11:43;;;;;;;3.50;1.88;;;;;;;;;;5015662;28;20021;-81
2023/11/22 10:14:09;;;;;;;1.40;1.10;;;;;;;;;;5001032;28;20057;-81
2023/11/22 10:16:35;;;;;;;1.42;1.20;;;;;;;;;;5013921;28;20036;-81
2023/11/22 10:19:01;;;;;;;2.67;1.08;;;;;;;;;;5006529;28;20433;-82
2023/11/22 10:21:32;;;;;;;3.35;1.27;;;10.70;86.70;;;;;;5012761;28;20092;-81
2023/11/22 10:24:02;;;;;;;1.40;0.85;;;10.60;85.60;;;;;;4999491;28;20037;-82
2023/11/22 10:26:28;;;;;;;6.95;1.73;;;;;;;;;;5012106;28;20021;-81
2023/11/22 10:28:54;;;;;;;3.45;1.30;;;10.60;84.70;;;;;;5010544;28;20502;-81
2023/11/22 10:31:21;;;;;;;1.75;1.65;;;10.40;83.70;;;;;;5011676;28;20562;-85
2023/11/22 10:33:47;;;;;;;1.02;0.88;;;10.50;84.60;;;;;;5001056;28;20426;-83
2023/11/22 10:36:17;;;;;;;1.23;1.13;;;10.40;91.40;;;;;;5012810;28;20073;-90
2023/11/22 10:38:47;;;;;;;1.67;1.50;;;10.40;90.10;;;;;;5012081;28;20035;-86
2023/11/22 10:41:13;;;;;;;2.90;1.50;;;10.30;90.90;;;;;;5013331;28;20083;-84
2023/11/22 10:43:41;;;;;;;1.42;1.30;;;;;;;;;;5003824;28;20045;-88
2023/11/22 10:46:11;;;;;;;1.02;0.93;;;;;;;;;;5013397;28;20069;-85
2023/11/22 10:48:37;;;;;;;1.52;1.38;;;;;;;;;;5008225;28;20105;-83
2023/11/22 10:51:05;;;;;;;0.90;0.90;;;10.30;82.70;;;;;;5011892;28;20042;-82
2023/11/22 10:53:41;;;;;;;1.42;0.90;;;10.20;82.60;;;;;;5003344;28;20106;-84
2023/11/22 10:56:17;;;;;;;3.30;1.83;;;10.20;82.50;;;;;;5012417;28;20397;-85
2023/11/22 10:58:46;;;;;;;1.88;0.98;;;10.10;93.30;;;;;;5012991;28;20503;-83
2023/11/22 11:01:12;;;;;;;1.50;1.20;;;10.20;92.70;;;;;;5014269;28;20076;-89
2023/11/22 11:03:41;;;;;;;2.50;0.70;;;10.40;81.20;;;;;;5020586;28;20026;-81
2023/11/22 11:06:13;;;;;;;4.20;0.88;;;10.40;80.60;;;;;;5012584;28;20025;-85
2023/11/22 11:08:39;;;;;;;2.25;1.48;;;;;;;;;;5012663;28;20087;-85
2023/11/22 11:11:06;;;;;;;1.15;1.10;;;;;;;;;;5009894;28;20491;-80
2023/11/22 11:13:32;;;;;;;2.13;1.38;;;;;;;;;;5003142;28;20555;-80
2023/11/22 11:15:59;;;;;;;0.95;0.80;;;;;;;;;;5021289;28;20029;-80
2023/11/22 11:18:25;;;;;;;1.02;0.90;;;;;;;;;;5018540;28;20036;-80
2023/11/22 11:20:59;;;;;;;1.05;0.90;;;10.70;88.30;;;;;;5022474;28;20112;-80
2023/11/22 11:23:26;;;;;;;2.35;1.80;;;11.00;75.90;;;;;;5018744;28;20041;-80
2023/11/22 11:26:08;;;;;;;13.38;5.18;;;11.20;81.50;;;;;;5013770;28;20021;-80
2023/11/22 11:28:44;;;;;;;1.13;1.02;;;11.10;75.10;;;;;;5008872;28;20040;-81
2023/11/22 11:31:09;;;;;;;3.35;1.20;;;;;;;;;;5010869;28;20054;-80
2023/11/22 11:33:53;;;;;;;4.10;2.05;;;11.00;74.50;;;;;;5004689;28;20109;-80
2023/11/22 11:36:26;;;;;;;2.53;1.90;;;10.90;74.20;;;;;;5013990;28;20026;-80
2023/11/22 11:38:56;;;;;;;5.05;1.30;;;10.70;90.20;;;;;;5014464;28;20060;-80
2023/11/22 11:41:29;;;;;;;16.33;13.23;;;10.80;74.10;;;;;;5013755;28;20025;-80
2023/11/22 11:43:57;;;;;;;1.35;1.15;;;10.80;72.80;;;;;;5005079;28;20049;-80
2023/11/22 11:46:23;;;;;;;1.05;0.95;;;;;;;;;;5011880;28;20034;-80
2023/11/22 11:48:52;;;;;;;1.42;1.25;;;10.70;71.00;;;;;;5011496;28;20533;-80
2023/11/22 11:51:22;;;;;;;1.02;0.90;;;10.70;71.20;;;;;;5014295;28;20044;-80
2023/11/22 11:53:49;;;;;;;1.42;1.33;;;;;;;;;;5006951;28;20022;-80
2023/11/22 11:56:15;;;;;;;0.77;0.77;;;;;;;;;;5012864;28;20513;-80
2023/11/22 11:58:49;;;;;;;1.33;0.70;;;10.90;71.30;;;;;;5013058;28;20487;-79
2023/11/22 12:01:24;;;;;;;0.50;0.50;;;;;;;;;;5004384;28;20085;-80
2023/11/22 12:03:51;;;;;;;0.70;0.60;;;;;;;;;;5008046;28;20037;-80
2023/11/22 12:06:17;;;;;;;1.67;0.90;;;11.20;68.60;;;;;;5014542;28;20522;-80
2023/11/22 12:08:44;;;;;;;0.70;0.70;;;11.40;84.40;;;;;;5015115;28;20084;-80
2023/11/22 12:11:10;;;;;;;0.73;0.60;;;;;;;;;;5014176;28;20037;-80
2023/11/22 12:13:46;;;;;;;1.02;0.70;;;11.80;66.90;;;;;;5006403;28;20987;-80
2023/11/22 12:16:14;;;;;;;0.52;0.52;;;11.90;66.30;;;;;;5013390;28;20029;-80
2023/11/22 12:18:49;;;;;;;0.70;0.70;;;12.10;66.00;;;;;;5014378;28;20076;-80
2023/11/22 12:21:16;;;;;;;2.45;0.70;;;;;;;;;;5013372;28;20030;-79
2023/11/22 12:23:42;;;;;;;0.70;0.70;;;12.40;79.00;;;;;;5007789;28;20026;-80
2023/11/22 12:26:13;;;;;;;0.65;0.65;;;12.60;64.40;;;;;;5024432;28;20667;-81
2023/11/22 12:28:46;;;;;;;1.50;1.40;;;13.20;64.30;;;;;;5013346;28;20502;-79
2023/11/22 12:31:12;;;;;;;0.70;0.70;;;13.60;63.30;;;;;;5014650;28;20022;-79
2023/11/22 12:33:39;;;;;;;2.70;0.80;;;;;;;;;;5005930;28;20057;-79
2023/11/22 12:36:06;;;;;;;0.85;0.60;;;12.10;59.90;;;;;;5011606;28;20033;-80
2023/11/22 12:38:32;;;;;;;0.90;0.90;;;;;;;;;;5012949;28;20033;-79
2023/11/22 12:40:58;;;;;;;1.10;1.00;;;13.30;69.60;;;;;;5013928;28;20026;-79
2023/11/22 12:43:28;;;;;;;4.22;0.85;;;;;;;;;;5009298;28;20288;-79
2023/11/22 12:46:07;;;;;;;0.70;0.70;;;13.80;60.50;;;;;;5010425;28;20441;-83
2023/11/22 12:48:33;;;;;;;1.55;1.13;;;13.20;66.80;;;;;;5012235;28;20029;-83
2023/11/22 12:50:59;;;;;;;0.60;0.60;;;13.40;59.50;;;;;;5015158;28;20489;-91
2023/11/22 12:53:28;;;;;;;0.73;0.73;;;13.40;58.90;;;;;;5009828;28;20034;-91
2023/11/22 12:55:56;;;;;;;0.80;0.77;;;13.00;74.00;;;;;;5016214;28;20014;-84
2023/11/22 12:58:25;;;;;;;0.70;0.70;;;13.00;57.50;;;;;;5015322;28;20022;-87
2023/11/22 13:01:00;;;;;;;1.13;0.98;;;13.00;58.40;;;;;;5017178;28;20029;-88
2023/11/22 13:03:27;;;;;;;0.75;0.60;;;;;;;;;;5017096;28;20083;-85
2023/11/22 13:05:53;;;;;;;0.65;0.63;;;;;;;;;;5016205;28;20022;-81
2023/11/22 13:08:21;;;;;;;0.98;0.90;;;;;;;;;;5017821;28;20081;-85
2023/11/22 13:10:53;;;;;;;1.20;1.10;;;13.90;57.00;;;;;;5017462;28;20060;-84
2023/11/22 13:13:29;;;;;;;1.00;0.65;;;13.60;56.60;;;;;;5017793;28;20476;-84
2023/11/22 13:15:55;;;;;;;0.70;0.70;;;13.60;72.70;;;;;;5015411;28;20609;-84
2023/11/22 13:18:21;;;;;;;0.85;0.85;;;;;;;;;;5016746;28;20108;-84
2023/11/22 13:20:48;;;;;;;0.68;0.68;;;;;;;;;;5014364;28;20026;-83
2023/11/22 13:23:14;;;;;;;0.60;0.60;;;;;;;;;;5014175;28;20025;-82
2023/11/22 13:25:47;;;;;;;0.75;0.75;;;;;;;;;;5015159;28;20091;-84
2023/11/22 13:28:13;;;;;;;0.88;0.77;;;;;;;;;;5018108;28;20487;-87
2023/11/22 13:30:39;;;;;;;1.23;0.70;;;;;;;;;;5015724;28;20087;-84
2023/11/22 13:33:05;;;;;;;0.75;0.70;;;;;;;;;;5016640;28;20033;-85
2023/11/22 13:35:31;;;;;;;0.45;0.45;;;12.20;72.90;;;;;;5014531;28;20100;-85
2023/11/22 13:37:59;;;;;;;5.07;0.82;;;12.10;58.00;;;;;;5016427;28;20086;-85
2023/11/22 13:40:25;;;;;;;2.75;1.00;;;;;;;;;;5015960;28;20120;-83
2023/11/22 13:42:54;;;;;;;1.15;0.82;;;11.70;58.70;;;;;;5016563;28;20028;-85
2023/11/22 13:45:20;;;;;;;0.82;0.82;;;;;;;;;;5013836;28;20423;-84
2023/11/22 13:47:53;;;;;;;1.20;0.93;;;11.40;59.00;;;;;;5015665;28;20025;-84
2023/11/22 13:50:21;;;;;;;1.27;0.80;;;;;;;;;;5015690;28;20034;-84
2023/11/22 13:52:48;;;;;;;0.80;0.80;;;11.00;59.60;;;;;;5015549;28;20017;-84
2023/11/22 13:55:15;;;;;;;0.70;0.70;;;10.90;77.10;;;;;;5014749;28;20482;-83
2023/11/22 13:57:41;;;;;;;0.50;0.50;;;;;;;;;;5015309;28;20139;-85